sensor_id;sensor_type;location;lat;lon;timestamp;pressure;altitude;pressure_sealevel;temperature;humidity
28911;BME280;16028;42.642;23.310;2022-12-07T00:01:25;93999.94;;;6.21;100.00
28911;BME280;16028;42.642;23.310;2022-12-07T00:03:55;94001.56;;;6.22;100.00
28911;BME280;16028;42.642;23.310;2022-12-07T00:06:29;94005.22;;;6.20;100.00
28911;BME280;16028;42.642;23.310;2022-12-07T00:08:55;94006.28;;;6.17;100.00
28911;BME280;16028;42.642;23.310;2022-12-07T00:11:23;94002.75;;;6.18;100.00
28911;BME280;16028;42.642;23.310;2022-12-07T00:13:52;93995.94;;;6.17;100.00
28911;BME280;16028;42.642;23.310;2022-12-07T00:16:21;93994.19;;;6.18;100.00
28911;BME280;16028;42.642;23.310;2022-12-07T00:18:48;93988.19;;;6.17;100.00
28911;BME280;16028;42.642;23.310;2022-12-07T00:21:18;93986.44;;;6.18;100.00
28911;BME280;16028;42.642;23.310;2022-12-07T00:23:47;93981.03;;;6.21;100.00
28911;BME280;16028;42.642;23.310;2022-12-07T00:26:15;93979.84;;;6.25;100.00
28911;BME280;16028;42.642;23.310;2022-12-07T00:28:45;93982.31;;;6.26;100.00
28911;BME280;16028;42.642;23.310;2022-12-07T00:31:14;93988.28;;;6.27;100.00
28911;BME280;16028;42.642;23.310;2022-12-07T00:33:41;93988.88;;;6.30;100.00
28911;BME280;16028;42.642;23.310;2022-12-07T00:36:10;93999.19;;;6.30;100.00
28911;BME280;16028;42.642;23.310;2022-12-07T00:38:39;93994.97;;;6.29;100.00
28911;BME280;16028;42.642;23.310;2022-12-07T00:41:09;93989.34;;;6.24;100.00
28911;BME280;16028;42.642;23.310;2022-12-07T00:43:36;93979.03;;;6.24;100.00
28911;BME280;16028;42.642;23.310;2022-12-07T00:46:04;93976.56;;;6.23;100.00
28911;BME280;16028;42.642;23.310;2022-12-07T00:48:31;93979.84;;;6.25;100.00
28911;BME280;16028;42.642;23.310;2022-12-07T00:50:58;93983.22;;;6.36;100.00
28911;BME280;16028;42.642;23.310;2022-12-07T00:53:26;93981.78;;;6.44;100.00
28911;BME280;16028;42.642;23.310;2022-12-07T00:55:54;93987.94;;;6.31;100.00
28911;BME280;16028;42.642;23.310;2022-12-07T00:58:22;93987.72;;;6.23;100.00
28911;BME280;16028;42.642;23.310;2022-12-07T01:00:49;93986.56;;;6.16;100.00
28911;BME280;16028;42.642;23.310;2022-12-07T01:03:17;93987.19;;;6.09;100.00
28911;BME280;16028;42.642;23.310;2022-12-07T01:05:54;93984.13;;;6.04;100.00
28911;BME280;16028;42.642;23.310;2022-12-07T01:08:23;93982.59;;;6.01;100.00
28911;BME280;16028;42.642;23.310;2022-12-07T01:10:59;93983.53;;;6.00;100.00
28911;BME280;16028;42.642;23.310;2022-12-07T01:13:27;93985.78;;;6.05;100.00
28911;BME280;16028;42.642;23.310;2022-12-07T01:15:58;93980.38;;;6.08;100.00
28911;BME280;16028;42.642;23.310;2022-12-07T01:18:25;93971.09;;;6.05;100.00
28911;BME280;16028;42.642;23.310;2022-12-07T01:21:00;93966.88;;;6.04;100.00
28911;BME280;16028;42.642;23.310;2022-12-07T01:23:27;93975.09;;;6.09;100.00
28911;BME280;16028;42.642;23.310;2022-12-07T01:25:55;93969.09;;;6.09;100.00
28911;BME280;16028;42.642;23.310;2022-12-07T01:28:24;93965.31;;;6.13;100.00
28911;BME280;16028;42.642;23.310;2022-12-07T01:30:58;93965.22;;;6.14;100.00
28911;BME280;16028;42.642;23.310;2022-12-07T01:33:27;93960.03;;;6.14;100.00
28911;BME280;16028;42.642;23.310;2022-12-07T01:35:54;93960.16;;;6.13;100.00
28911;BME280;16028;42.642;23.310;2022-12-07T01:38:20;93963.81;;;6.10;100.00
28911;BME280;16028;42.642;23.310;2022-12-07T01:40:54;93961.72;;;6.04;100.00
28911;BME280;16028;42.642;23.310;2022-12-07T01:43:24;93965.13;;;6.05;100.00
28911;BME280;16028;42.642;23.310;2022-12-07T01:45:52;93970.16;;;6.06;100.00
28911;BME280;16028;42.642;23.310;2022-12-07T01:48:22;93969.34;;;6.06;100.00
28911;BME280;16028;42.642;23.310;2022-12-07T01:50:51;93962.28;;;6.08;100.00
28911;BME280;16028;42.642;23.310;2022-12-07T01:53:21;93969.78;;;6.11;100.00
28911;BME280;16028;42.642;23.310;2022-12-07T01:55:52;93957.81;;;6.10;100.00
28911;BME280;16028;42.642;23.310;2022-12-07T01:58:20;93954.53;;;6.08;100.00
28911;BME280;16028;42.642;23.310;2022-12-07T02:00:49;93945.41;;;6.04;100.00
28911;BME280;16028;42.642;23.310;2022-12-07T02:03:19;93937.66;;;6.04;100.00
28911;BME280;16028;42.642;23.310;2022-12-07T02:05:49;93943.28;;;6.09;100.00
28911;BME280;16028;42.642;23.310;2022-12-07T02:08:17;93932.00;;;6.10;100.00
28911;BME280;16028;42.642;23.310;2022-12-07T02:10:44;93937.88;;;6.12;100.00
28911;BME280;16028;42.642;23.310;2022-12-07T02:13:13;93950.66;;;6.13;100.00
28911;BME280;16028;42.642;23.310;2022-12-07T02:16:08;93953.22;;;6.13;100.00
28911;BME280;16028;42.642;23.310;2022-12-07T02:18:51;93956.78;;;6.12;100.00
28911;BME280;16028;42.642;23.310;2022-12-07T02:21:29;93949.63;;;6.05;100.00
28911;BME280;16028;42.642;23.310;2022-12-07T02:24:29;93951.44;;;5.93;100.00
28911;BME280;16028;42.642;23.310;2022-12-07T02:27:14;93946.50;;;5.90;100.00
28911;BME280;16028;42.642;23.310;2022-12-07T02:29:54;93946.63;;;5.89;100.00
28911;BME280;16028;42.642;23.310;2022-12-07T02:32:27;93939.69;;;5.89;100.00
28911;BME280;16028;42.642;23.310;2022-12-07T02:35:02;93929.38;;;5.89;100.00
28911;BME280;16028;42.642;23.310;2022-12-07T02:37:35;93934.28;;;5.92;100.00
28911;BME280;16028;42.642;23.310;2022-12-07T02:40:08;93929.38;;;5.89;100.00
28911;BME280;16028;42.642;23.310;2022-12-07T02:42:44;93936.88;;;5.92;100.00
28911;BME280;16028;42.642;23.310;2022-12-07T02:45:17;93930.78;;;5.93;100.00
28911;BME280;16028;42.642;23.310;2022-12-07T02:47:50;93936.19;;;5.90;100.00
28911;BME280;16028;42.642;23.310;2022-12-07T02:50:18;93935.47;;;5.88;100.00
28911;BME280;16028;42.642;23.310;2022-12-07T02:52:46;93934.03;;;5.84;100.00
28911;BME280;16028;42.642;23.310;2022-12-07T02:55:15;93935.38;;;5.90;100.00
28911;BME280;16028;42.642;23.310;2022-12-07T02:57:54;93926.28;;;5.84;100.00
28911;BME280;16028;42.642;23.310;2022-12-07T03:00:25;93927.38;;;5.81;100.00
28911;BME280;16028;42.642;23.310;2022-12-07T03:02:54;93922.09;;;5.83;100.00
28911;BME280;16028;42.642;23.310;2022-12-07T03:05:44;93916.47;;;5.78;100.00
28911;BME280;16028;42.642;23.310;2022-12-07T03:08:23;93913.31;;;5.74;100.00
28911;BME280;16028;42.642;23.310;2022-12-07T03:10:56;93920.34;;;5.72;100.00
28911;BME280;16028;42.642;23.310;2022-12-07T03:13:28;93902.28;;;5.72;100.00
28911;BME280;16028;42.642;23.310;2022-12-07T03:16:02;93909.94;;;5.74;100.00
28911;BME280;16028;42.642;23.310;2022-12-07T03:18:35;93912.50;;;5.74;100.00
28911;BME280;16028;42.642;23.310;2022-12-07T03:21:08;93906.38;;;5.75;100.00
28911;BME280;16028;42.642;23.310;2022-12-07T03:23:38;93908.72;;;5.78;100.00
28911;BME280;16028;42.642;23.310;2022-12-07T03:26:10;93909.44;;;5.80;100.00
28911;BME280;16028;42.642;23.310;2022-12-07T03:28:42;93910.72;;;5.74;100.00
28911;BME280;16028;42.642;23.310;2022-12-07T03:31:15;93916.59;;;5.65;100.00
28911;BME280;16028;42.642;23.310;2022-12-07T03:33:47;93924.16;;;5.57;100.00
28911;BME280;16028;42.642;23.310;2022-12-07T03:36:20;93919.34;;;5.53;100.00
28911;BME280;16028;42.642;23.310;2022-12-07T03:38:52;93915.38;;;5.49;100.00
28911;BME280;16028;42.642;23.310;2022-12-07T03:41:23;93908.31;;;5.40;100.00
28911;BME280;16028;42.642;23.310;2022-12-07T03:43:51;93905.06;;;5.38;100.00
28911;BME280;16028;42.642;23.310;2022-12-07T03:46:27;93925.44;;;5.41;100.00
28911;BME280;16028;42.642;23.310;2022-12-07T03:48:59;93914.31;;;5.40;100.00
28911;BME280;16028;42.642;23.310;2022-12-07T03:51:37;93916.19;;;5.38;100.00
28911;BME280;16028;42.642;23.310;2022-12-07T03:54:10;93914.44;;;5.39;100.00
28911;BME280;16028;42.642;23.310;2022-12-07T03:56:38;93908.47;;;5.38;100.00
28911;BME280;16028;42.642;23.310;2022-12-07T03:59:06;93900.59;;;5.40;100.00
28911;BME280;16028;42.642;23.310;2022-12-07T04:01:35;93900.34;;;5.43;100.00
28911;BME280;16028;42.642;23.310;2022-12-07T04:04:02;93908.56;;;5.48;100.00
28911;BME280;16028;42.642;23.310;2022-12-07T04:06:29;93903.28;;;5.49;100.00
28911;BME280;16028;42.642;23.310;2022-12-07T04:08:55;93904.72;;;5.42;100.00
28911;BME280;16028;42.642;23.310;2022-12-07T04:11:22;93900.34;;;5.43;100.00
28911;BME280;16028;42.642;23.310;2022-12-07T04:13:49;93897.44;;;5.47;100.00
28911;BME280;16028;42.642;23.310;2022-12-07T04:16:35;93901.41;;;5.40;100.00
28911;BME280;16028;42.642;23.310;2022-12-07T04:19:01;93909.63;;;5.34;100.00
28911;BME280;16028;42.642;23.310;2022-12-07T04:21:28;93902.97;;;5.31;100.00
28911;BME280;16028;42.642;23.310;2022-12-07T04:23:55;93903.78;;;5.32;100.00
28911;BME280;16028;42.642;23.310;2022-12-07T04:26:22;93902.03;;;5.32;100.00
28911;BME280;16028;42.642;23.310;2022-12-07T04:28:48;93905.41;;;5.33;100.00
28911;BME280;16028;42.642;23.310;2022-12-07T04:31:15;93907.06;;;5.34;100.00
28911;BME280;16028;42.642;23.310;2022-12-07T04:33:43;93904.84;;;5.29;100.00
28911;BME280;16028;42.642;23.310;2022-12-07T04:36:10;93912.59;;;5.29;100.00
28911;BME280;16028;42.642;23.310;2022-12-07T04:38:37;93908.13;;;5.31;100.00
28911;BME280;16028;42.642;23.310;2022-12-07T04:41:05;93913.03;;;5.34;100.00
28911;BME280;16028;42.642;23.310;2022-12-07T04:43:32;93917.38;;;5.34;100.00
28911;BME280;16028;42.642;23.310;2022-12-07T04:45:59;93915.72;;;5.33;100.00
28911;BME280;16028;42.642;23.310;2022-12-07T04:48:26;93913.13;;;5.33;100.00
28911;BME280;16028;42.642;23.310;2022-12-07T04:50:55;93919.84;;;5.36;100.00
28911;BME280;16028;42.642;23.310;2022-12-07T04:53:21;93920.63;;;5.36;100.00
28911;BME280;16028;42.642;23.310;2022-12-07T04:55:48;93920.78;;;5.34;100.00
28911;BME280;16028;42.642;23.310;2022-12-07T04:58:15;93916.53;;;5.33;100.00
28911;BME280;16028;42.642;23.310;2022-12-07T05:00:42;93910.56;;;5.33;100.00
28911;BME280;16028;42.642;23.310;2022-12-07T05:03:08;93907.88;;;5.34;100.00
28911;BME280;16028;42.642;23.310;2022-12-07T05:05:35;93913.13;;;5.33;100.00
28911;BME280;16028;42.642;23.310;2022-12-07T05:08:03;93915.28;;;5.28;100.00
28911;BME280;16028;42.642;23.310;2022-12-07T05:10:30;93916.31;;;5.25;100.00
28911;BME280;16028;42.642;23.310;2022-12-07T05:12:57;93921.97;;;5.19;100.00
28911;BME280;16028;42.642;23.310;2022-12-07T05:15:23;93919.72;;;5.15;100.00
28911;BME280;16028;42.642;23.310;2022-12-07T05:17:50;93925.69;;;5.15;100.00
28911;BME280;16028;42.642;23.310;2022-12-07T05:20:17;93926.88;;;5.11;100.00
28911;BME280;16028;42.642;23.310;2022-12-07T05:22:44;93925.25;;;5.10;100.00
28911;BME280;16028;42.642;23.310;2022-12-07T05:25:12;93926.03;;;5.11;100.00
28911;BME280;16028;42.642;23.310;2022-12-07T05:27:39;93922.19;;;5.16;100.00
28911;BME280;16028;42.642;23.310;2022-12-07T05:30:07;93915.16;;;5.18;100.00
28911;BME280;16028;42.642;23.310;2022-12-07T05:32:34;93917.84;;;5.28;100.00
28911;BME280;16028;42.642;23.310;2022-12-07T05:35:00;93914.56;;;5.26;100.00
28911;BME280;16028;42.642;23.310;2022-12-07T05:37:27;93921.13;;;5.30;100.00
28911;BME280;16028;42.642;23.310;2022-12-07T05:39:54;93898.63;;;5.32;100.00
28911;BME280;16028;42.642;23.310;2022-12-07T05:42:22;93894.75;;;5.38;100.00
28911;BME280;16028;42.642;23.310;2022-12-07T05:44:49;93893.34;;;5.45;100.00
28911;BME280;16028;42.642;23.310;2022-12-07T05:47:16;93902.69;;;5.46;100.00
28911;BME280;16028;42.642;23.310;2022-12-07T05:49:43;93900.09;;;5.46;100.00
28911;BME280;16028;42.642;23.310;2022-12-07T05:52:09;93898.25;;;5.48;100.00
28911;BME280;16028;42.642;23.310;2022-12-07T05:54:36;93899.91;;;5.49;100.00
28911;BME280;16028;42.642;23.310;2022-12-07T05:57:03;93901.28;;;5.53;100.00
28911;BME280;16028;42.642;23.310;2022-12-07T05:59:31;93902.47;;;5.49;100.00
28911;BME280;16028;42.642;23.310;2022-12-07T06:01:58;93907.84;;;5.46;100.00
28911;BME280;16028;42.642;23.310;2022-12-07T06:04:27;93906.22;;;5.45;100.00
28911;BME280;16028;42.642;23.310;2022-12-07T06:06:54;93903.88;;;5.42;100.00
28911;BME280;16028;42.642;23.310;2022-12-07T06:09:22;93897.91;;;5.41;100.00
28911;BME280;16028;42.642;23.310;2022-12-07T06:11:49;93912.56;;;5.41;100.00
28911;BME280;16028;42.642;23.310;2022-12-07T06:14:35;93901.91;;;5.34;100.00
28911;BME280;16028;42.642;23.310;2022-12-07T06:17:02;93910.91;;;5.40;100.00
28911;BME280;16028;42.642;23.310;2022-12-07T06:19:29;93906.56;;;5.40;100.00
28911;BME280;16028;42.642;23.310;2022-12-07T06:21:56;93915.81;;;5.43;100.00
28911;BME280;16028;42.642;23.310;2022-12-07T06:24:23;93918.88;;;5.48;100.00
28911;BME280;16028;42.642;23.310;2022-12-07T06:26:53;93922.25;;;5.59;100.00
28911;BME280;16028;42.642;23.310;2022-12-07T06:29:21;93927.91;;;5.53;100.00
28911;BME280;16028;42.642;23.310;2022-12-07T06:31:50;93927.66;;;5.56;100.00
28911;BME280;16028;42.642;23.310;2022-12-07T06:34:21;93921.31;;;5.60;100.00
28911;BME280;16028;42.642;23.310;2022-12-07T06:36:48;93920.41;;;5.61;100.00
28911;BME280;16028;42.642;23.310;2022-12-07T06:39:17;93919.09;;;5.67;100.00
28911;BME280;16028;42.642;23.310;2022-12-07T06:41:47;93924.59;;;5.73;100.00
28911;BME280;16028;42.642;23.310;2022-12-07T06:44:14;93926.00;;;5.66;100.00
28911;BME280;16028;42.642;23.310;2022-12-07T06:46:41;93928.47;;;5.68;100.00
28911;BME280;16028;42.642;23.310;2022-12-07T06:49:12;93920.25;;;5.74;100.00
28911;BME280;16028;42.642;23.310;2022-12-07T06:51:38;93922.34;;;5.80;100.00
28911;BME280;16028;42.642;23.310;2022-12-07T06:54:06;93927.13;;;5.84;100.00
28911;BME280;16028;42.642;23.310;2022-12-07T06:56:33;93917.63;;;5.85;100.00
28911;BME280;16028;42.642;23.310;2022-12-07T06:59:00;93927.38;;;5.81;100.00
28911;BME280;16028;42.642;23.310;2022-12-07T07:01:28;93922.19;;;5.81;100.00
28911;BME280;16028;42.642;23.310;2022-12-07T07:03:55;93932.41;;;5.83;100.00
28911;BME280;16028;42.642;23.310;2022-12-07T07:06:23;93932.16;;;5.97;100.00
28911;BME280;16028;42.642;23.310;2022-12-07T07:08:50;93931.81;;;5.91;100.00
28911;BME280;16028;42.642;23.310;2022-12-07T07:11:16;93925.03;;;5.90;100.00
28911;BME280;16028;42.642;23.310;2022-12-07T07:13:44;93923.03;;;5.93;100.00
28911;BME280;16028;42.642;23.310;2022-12-07T07:16:12;93920.94;;;5.87;100.00
28911;BME280;16028;42.642;23.310;2022-12-07T07:18:39;93916.91;;;5.94;100.00
28911;BME280;16028;42.642;23.310;2022-12-07T07:21:06;93921.25;;;5.94;100.00
28911;BME280;16028;42.642;23.310;2022-12-07T07:23:34;93924.91;;;5.91;100.00
28911;BME280;16028;42.642;23.310;2022-12-07T07:26:01;93932.41;;;5.94;100.00
28911;BME280;16028;42.642;23.310;2022-12-07T07:28:28;93932.88;;;5.99;100.00
28911;BME280;16028;42.642;23.310;2022-12-07T07:30:54;93937.41;;;6.07;100.00
28911;BME280;16028;42.642;23.310;2022-12-07T07:33:21;93940.22;;;6.15;100.00
28911;BME280;16028;42.642;23.310;2022-12-07T07:35:48;93944.66;;;6.13;100.00
28911;BME280;16028;42.642;23.310;2022-12-07T07:38:15;93936.38;;;6.09;100.00
28911;BME280;16028;42.642;23.310;2022-12-07T07:40:43;93946.69;;;6.09;100.00
28911;BME280;16028;42.642;23.310;2022-12-07T07:43:09;93941.53;;;6.09;100.00
28911;BME280;16028;42.642;23.310;2022-12-07T07:45:36;93938.69;;;6.12;100.00
28911;BME280;16028;42.642;23.310;2022-12-07T07:48:03;93934.66;;;6.19;100.00
28911;BME280;16028;42.642;23.310;2022-12-07T07:50:29;93942.53;;;6.18;100.00
28911;BME280;16028;42.642;23.310;2022-12-07T07:52:57;93930.81;;;6.14;100.00
28911;BME280;16028;42.642;23.310;2022-12-07T07:55:24;93937.81;;;6.23;100.00
28911;BME280;16028;42.642;23.310;2022-12-07T07:57:52;93936.53;;;6.28;100.00
28911;BME280;16028;42.642;23.310;2022-12-07T08:00:19;93934.41;;;6.22;100.00
28911;BME280;16028;42.642;23.310;2022-12-07T08:02:46;93937.25;;;6.19;100.00
28911;BME280;16028;42.642;23.310;2022-12-07T08:05:16;93936.44;;;6.19;100.00
28911;BME280;16028;42.642;23.310;2022-12-07T08:07:43;93935.13;;;6.24;100.00
28911;BME280;16028;42.642;23.310;2022-12-07T08:10:11;93937.22;;;6.30;100.00
28911;BME280;16028;42.642;23.310;2022-12-07T08:12:39;93932.16;;;6.29;100.00
28911;BME280;16028;42.642;23.310;2022-12-07T08:15:30;93927.72;;;6.31;100.00
28911;BME280;16028;42.642;23.310;2022-12-07T08:17:57;93929.47;;;6.30;100.00
28911;BME280;16028;42.642;23.310;2022-12-07T08:20:23;93927.72;;;6.31;100.00
28911;BME280;16028;42.642;23.310;2022-12-07T08:22:50;93928.97;;;6.36;100.00
28911;BME280;16028;42.642;23.310;2022-12-07T08:25:17;93932.47;;;6.35;100.00
28911;BME280;16028;42.642;23.310;2022-12-07T08:27:44;93930.03;;;6.34;100.00
28911;BME280;16028;42.642;23.310;2022-12-07T08:30:11;93928.28;;;6.34;100.00
28911;BME280;16028;42.642;23.310;2022-12-07T08:32:39;93930.03;;;6.34;100.00
28911;BME280;16028;42.642;23.310;2022-12-07T08:35:07;93927.22;;;6.37;100.00
28911;BME280;16028;42.642;23.310;2022-12-07T08:37:34;93923.28;;;6.43;100.00
28911;BME280;16028;42.642;23.310;2022-12-07T08:40:01;93925.78;;;6.44;100.00
28911;BME280;16028;42.642;23.310;2022-12-07T08:42:28;93922.78;;;6.49;100.00
28911;BME280;16028;42.642;23.310;2022-12-07T08:45:03;93927.44;;;6.55;100.00
28911;BME280;16028;42.642;23.310;2022-12-07T08:47:30;93925.94;;;6.52;100.00
28911;BME280;16028;42.642;23.310;2022-12-07T08:49:59;93918.88;;;6.54;100.00
28911;BME280;16028;42.642;23.310;2022-12-07T08:52:29;93916.53;;;6.51;100.00
28911;BME280;16028;42.642;23.310;2022-12-07T08:54:56;93921.59;;;6.53;100.00
28911;BME280;16028;42.642;23.310;2022-12-07T08:57:23;93916.19;;;6.56;100.00
28911;BME280;16028;42.642;23.310;2022-12-07T08:59:50;93920.41;;;6.57;100.00
28911;BME280;16028;42.642;23.310;2022-12-07T09:02:17;93904.41;;;6.63;100.00
28911;BME280;16028;42.642;23.310;2022-12-07T09:04:44;93905.28;;;6.73;100.00
28911;BME280;16028;42.642;23.310;2022-12-07T09:07:12;93904.31;;;6.74;100.00
28911;BME280;16028;42.642;23.310;2022-12-07T09:09:39;93904.06;;;6.77;100.00
28911;BME280;16028;42.642;23.310;2022-12-07T09:12:05;93895.56;;;6.86;100.00
28911;BME280;16028;42.642;23.310;2022-12-07T09:14:32;93897.91;;;6.89;100.00
28911;BME280;16028;42.642;23.310;2022-12-07T09:17:05;93887.94;;;6.84;100.00
28911;BME280;16028;42.642;23.310;2022-12-07T09:19:32;93887.09;;;6.84;100.00
28911;BME280;16028;42.642;23.310;2022-12-07T09:21:59;93880.06;;;6.86;100.00
28911;BME280;16028;42.642;23.310;2022-12-07T09:24:27;93885.75;;;6.89;100.00
28911;BME280;16028;42.642;23.310;2022-12-07T09:26:54;93885.75;;;6.89;100.00
28911;BME280;16028;42.642;23.310;2022-12-07T09:29:21;93888.22;;;6.91;100.00
28911;BME280;16028;42.642;23.310;2022-12-07T09:31:47;93892.31;;;6.93;100.00
28911;BME280;16028;42.642;23.310;2022-12-07T09:34:14;93881.59;;;6.98;100.00
28911;BME280;16028;42.642;23.310;2022-12-07T09:36:41;93875.47;;;6.99;100.00
28911;BME280;16028;42.642;23.310;2022-12-07T09:39:08;93866.41;;;7.05;100.00
28911;BME280;16028;42.642;23.310;2022-12-07T09:41:39;93867.63;;;7.10;100.00
28911;BME280;16028;42.642;23.310;2022-12-07T09:44:11;93869.44;;;7.19;100.00
28911;BME280;16028;42.642;23.310;2022-12-07T09:46:40;93869.31;;;7.21;100.00
28911;BME280;16028;42.642;23.310;2022-12-07T09:49:11;93864.66;;;7.24;100.00
28911;BME280;16028;42.642;23.310;2022-12-07T09:51:39;93855.69;;;7.28;100.00
28911;BME280;16028;42.642;23.310;2022-12-07T09:54:09;93858.19;;;7.30;100.00
28911;BME280;16028;42.642;23.310;2022-12-07T09:56:40;93863.91;;;7.33;100.00
28911;BME280;16028;42.642;23.310;2022-12-07T09:59:13;93850.84;;;7.44;100.00
28911;BME280;16028;42.642;23.310;2022-12-07T10:01:42;93855.22;;;7.54;100.00
28911;BME280;16028;42.642;23.310;2022-12-07T10:04:11;93834.81;;;7.70;100.00
28911;BME280;16028;42.642;23.310;2022-12-07T10:06:41;93842.28;;;7.63;100.00
28911;BME280;16028;42.642;23.310;2022-12-07T10:09:12;93842.19;;;7.65;100.00
28911;BME280;16028;42.642;23.310;2022-12-07T10:12:05;93833.19;;;7.69;100.00
28911;BME280;16028;42.642;23.310;2022-12-07T10:14:34;93836.47;;;7.80;99.95
28911;BME280;16028;42.642;23.310;2022-12-07T10:17:02;93838.91;;;7.82;99.98
28911;BME280;16028;42.642;23.310;2022-12-07T10:19:30;93838.91;;;7.82;100.00
28911;BME280;16028;42.642;23.310;2022-12-07T10:22:05;93828.44;;;7.83;100.00
28911;BME280;16028;42.642;23.310;2022-12-07T10:24:32;93829.94;;;7.95;100.00
28911;BME280;16028;42.642;23.310;2022-12-07T10:26:59;93820.94;;;7.99;100.00
28911;BME280;16028;42.642;23.310;2022-12-07T10:29:30;93820.94;;;8.09;100.00
28911;BME280;16028;42.642;23.310;2022-12-07T10:31:59;93811.13;;;8.13;100.00
28911;BME280;16028;42.642;23.310;2022-12-07T10:34:28;93804.44;;;8.20;100.00
28911;BME280;16028;42.642;23.310;2022-12-07T10:37:14;93801.56;;;8.23;100.00
28911;BME280;16028;42.642;23.310;2022-12-07T10:39:43;93788.63;;;8.32;100.00
28911;BME280;16028;42.642;23.310;2022-12-07T10:42:18;93800.19;;;8.38;100.00
28911;BME280;16028;42.642;23.310;2022-12-07T10:44:47;93793.91;;;8.40;100.00
28911;BME280;16028;42.642;23.310;2022-12-07T10:47:21;93790.09;;;8.44;100.00
28911;BME280;16028;42.642;23.310;2022-12-07T10:50:02;93780.66;;;8.53;100.00
28911;BME280;16028;42.642;23.310;2022-12-07T10:52:45;93775.31;;;8.64;100.00
28911;BME280;16028;42.642;23.310;2022-12-07T10:55:22;93765.56;;;8.76;97.96
28911;BME280;16028;42.642;23.310;2022-12-07T10:58:15;93774.69;;;8.80;97.69
28911;BME280;16028;42.642;23.310;2022-12-07T11:00:57;93766.06;;;8.89;96.92
28911;BME280;16028;42.642;23.310;2022-12-07T11:03:44;93759.47;;;8.94;97.09
28911;BME280;16028;42.642;23.310;2022-12-07T11:06:23;93763.78;;;9.03;97.77
28911;BME280;16028;42.642;23.310;2022-12-07T11:08:59;93759.25;;;9.15;94.21
28911;BME280;16028;42.642;23.310;2022-12-07T11:11:33;93762.16;;;9.30;87.99
28911;BME280;16028;42.642;23.310;2022-12-07T11:14:08;93765.78;;;9.37;89.78
28911;BME280;16028;42.642;23.310;2022-12-07T11:16:50;93761.13;;;9.40;90.38
28911;BME280;16028;42.642;23.310;2022-12-07T11:19:47;93748.59;;;9.53;89.13
28911;BME280;16028;42.642;23.310;2022-12-07T11:22:22;93748.53;;;9.63;87.93
28911;BME280;16028;42.642;23.310;2022-12-07T11:24:57;93751.34;;;9.70;88.54
28911;BME280;16028;42.642;23.310;2022-12-07T11:27:34;93741.47;;;9.73;88.84
28911;BME280;16028;42.642;23.310;2022-12-07T11:30:13;93743.78;;;9.76;87.98
28911;BME280;16028;42.642;23.310;2022-12-07T11:32:50;93734.94;;;9.87;85.84
28911;BME280;16028;42.642;23.310;2022-12-07T11:35:27;93722.75;;;9.87;87.17
28911;BME280;16028;42.642;23.310;2022-12-07T11:37:57;93723.94;;;9.93;87.29
28911;BME280;16028;42.642;23.310;2022-12-07T11:40:29;93723.94;;;9.93;87.48
28911;BME280;16028;42.642;23.310;2022-12-07T11:43:01;93721.41;;;10.01;84.96
28911;BME280;16028;42.642;23.310;2022-12-07T11:45:32;93728.09;;;10.03;84.51
28911;BME280;16028;42.642;23.310;2022-12-07T11:48:02;93708.59;;;10.25;82.59
28911;BME280;16028;42.642;23.310;2022-12-07T11:50:35;93717.97;;;10.18;83.67
28911;BME280;16028;42.642;23.310;2022-12-07T11:53:06;93720.50;;;10.10;85.55
28911;BME280;16028;42.642;23.310;2022-12-07T11:55:42;93715.69;;;10.15;85.75
28911;BME280;16028;42.642;23.310;2022-12-07T11:58:28;93706.63;;;10.19;84.78
28911;BME280;16028;42.642;23.310;2022-12-07T12:01:11;93711.06;;;10.27;81.83
28911;BME280;16028;42.642;23.310;2022-12-07T12:03:45;93703.31;;;10.35;79.41
28911;BME280;16028;42.642;23.310;2022-12-07T12:06:12;93707.78;;;10.25;80.49
28911;BME280;16028;42.642;23.310;2022-12-07T12:08:42;93705.56;;;10.30;79.64
28911;BME280;16028;42.642;23.310;2022-12-07T12:11:20;93703.88;;;10.21;81.84
28911;BME280;16028;42.642;23.310;2022-12-07T12:14:11;93697.19;;;10.18;83.17
28911;BME280;16028;42.642;23.310;2022-12-07T12:16:57;93686.47;;;10.21;82.50
28911;BME280;16028;42.642;23.310;2022-12-07T12:19:33;93684.91;;;10.28;81.65
28911;BME280;16028;42.642;23.310;2022-12-07T12:22:10;93681.69;;;10.34;80.25
28911;BME280;16028;42.642;23.310;2022-12-07T12:24:39;93672.81;;;10.45;79.29
28911;BME280;16028;42.642;23.310;2022-12-07T12:27:09;93670.41;;;10.51;78.17
28911;BME280;16028;42.642;23.310;2022-12-07T12:29:41;93669.59;;;10.51;78.80
28911;BME280;16028;42.642;23.310;2022-12-07T12:32:15;93670.53;;;10.42;77.40
28911;BME280;16028;42.642;23.310;2022-12-07T12:35:01;93655.88;;;10.33;78.53
28911;BME280;16028;42.642;23.310;2022-12-07T12:37:42;93655.69;;;10.34;79.18
28911;BME280;16028;42.642;23.310;2022-12-07T12:40:38;93660.88;;;10.34;81.03
28911;BME280;16028;42.642;23.310;2022-12-07T12:43:42;93663.88;;;10.47;83.79
28911;BME280;16028;42.642;23.310;2022-12-07T12:46:37;93661.34;;;10.63;83.91
28911;BME280;16028;42.642;23.310;2022-12-07T12:55:22;93659.97;;;10.85;77.56
28911;BME280;16028;42.642;23.310;2022-12-07T13:01:40;93663.69;;;10.83;77.02
28911;BME280;16028;42.642;23.310;2022-12-07T13:06:58;93664.31;;;10.69;80.17
28911;BME280;16028;42.642;23.310;2022-12-07T13:09:27;93654.13;;;10.83;76.70
28911;BME280;16028;42.642;23.310;2022-12-07T13:12:01;93651.38;;;10.85;75.82
28911;BME280;16028;42.642;23.310;2022-12-07T13:14:56;93662.06;;;10.74;76.89
28911;BME280;16028;42.642;23.310;2022-12-07T13:17:59;93660.53;;;10.63;77.75
28911;BME280;16028;42.642;23.310;2022-12-07T13:20:50;93663.44;;;10.52;78.72
28911;BME280;16028;42.642;23.310;2022-12-07T13:23:23;93664.13;;;10.62;77.42